sensor_id;sensor_type;location;lat;lon;timestamp;pressure;altitude;pressure_sealevel;temperature;humidity
57290;BME280;43523;53.022;-1.178;2023-04-25T00:00:09;100967.93;;;-0.02;71.93
57290;BME280;43523;53.022;-1.178;2023-04-25T00:01:12;100965.89;;;0.10;71.90
57290;BME280;43523;53.022;-1.178;2023-04-25T00:02:14;100967.98;;;-0.84;74.84
57290;BME280;43523;53.022;-1.178;2023-04-25T00:03:17;100969.96;;;-0.97;76.16
57290;BME280;43523;53.022;-1.178;2023-04-25T00:04:19;100968.64;;;-0.30;74.49
57290;BME280;43523;53.022;-1.178;2023-04-25T00:05:22;100970.84;;;-0.36;74.24
57290;BME280;43523;53.022;-1.178;2023-04-25T00:06:24;100970.48;;;-0.60;73.46
57290;BME280;43523;53.022;-1.178;2023-04-25T00:07:26;100969.51;;;-0.18;73.35
57290;BME280;43523;53.022;-1.178;2023-04-25T00:08:29;100970.06;;;-0.49;74.52
57290;BME280;43523;53.022;-1.178;2023-04-25T00:09:32;100967.96;;;-0.38;74.23
57290;BME280;43523;53.022;-1.178;2023-04-25T00:10:35;100966.58;;;-0.32;73.68
57290;BME280;43523;53.022;-1.178;2023-04-25T00:11:38;100963.40;;;-0.38;73.37
57290;BME280;43523;53.022;-1.178;2023-04-25T00:12:41;100965.09;;;-0.81;75.25
57290;BME280;43523;53.022;-1.178;2023-04-25T00:13:44;100966.71;;;-0.83;75.31
57290;BME280;43523;53.022;-1.178;2023-04-25T00:14:46;100964.18;;;-0.63;74.42
57290;BME280;43523;53.022;-1.178;2023-04-25T00:15:49;100965.18;;;-0.83;75.50
57290;BME280;43523;53.022;-1.178;2023-04-25T00:16:52;100965.58;;;-0.88;75.77
57290;BME280;43523;53.022;-1.178;2023-04-25T00:17:55;100967.66;;;-0.90;75.85
57290;BME280;43523;53.022;-1.178;2023-04-25T00:18:57;100968.77;;;-1.35;77.99
57290;BME280;43523;53.022;-1.178;2023-04-25T00:20:00;100966.90;;;-1.22;77.42
57290;BME280;43523;53.022;-1.178;2023-04-25T00:21:03;100965.46;;;-0.89;76.01
57290;BME280;43523;53.022;-1.178;2023-04-25T00:22:05;100962.97;;;-0.93;76.21
57290;BME280;43523;53.022;-1.178;2023-04-25T00:23:08;100967.48;;;-1.31;78.15
57290;BME280;43523;53.022;-1.178;2023-04-25T00:24:10;100965.95;;;-1.31;78.23
57290;BME280;43523;53.022;-1.178;2023-04-25T00:25:13;100968.85;;;-2.33;83.07
57290;BME280;43523;53.022;-1.178;2023-04-25T00:26:15;100970.03;;;-2.45;85.29
57290;BME280;43523;53.022;-1.178;2023-04-25T00:27:18;100966.56;;;-1.50;82.89
57290;BME280;43523;53.022;-1.178;2023-04-25T00:28:20;100967.17;;;-1.32;83.20
57290;BME280;43523;53.022;-1.178;2023-04-25T00:29:23;100967.09;;;-1.15;79.86
57290;BME280;43523;53.022;-1.178;2023-04-25T00:30:25;100967.01;;;-0.73;79.97
57290;BME280;43523;53.022;-1.178;2023-04-25T00:31:28;100969.51;;;-1.28;80.46
57290;BME280;43523;53.022;-1.178;2023-04-25T00:32:30;100972.08;;;-1.21;80.94
57290;BME280;43523;53.022;-1.178;2023-04-25T00:33:33;100970.59;;;-1.21;81.81
57290;BME280;43523;53.022;-1.178;2023-04-25T00:34:36;100975.00;;;-2.15;85.58
57290;BME280;43523;53.022;-1.178;2023-04-25T00:35:38;100975.33;;;-2.11;84.62
57290;BME280;43523;53.022;-1.178;2023-04-25T00:36:41;100972.76;;;-1.96;85.22
57290;BME280;43523;53.022;-1.178;2023-04-25T00:37:44;100976.95;;;-2.95;89.99
57290;BME280;43523;53.022;-1.178;2023-04-25T00:38:47;100973.86;;;-1.55;89.15
57290;BME280;43523;53.022;-1.178;2023-04-25T00:39:50;100976.14;;;-1.73;87.63
57290;BME280;43523;53.022;-1.178;2023-04-25T00:40:53;100976.31;;;-1.79;88.46
57290;BME280;43523;53.022;-1.178;2023-04-25T00:41:55;100973.24;;;-1.81;86.93
57290;BME280;43523;53.022;-1.178;2023-04-25T00:42:57;100969.76;;;-1.43;86.14
57290;BME280;43523;53.022;-1.178;2023-04-25T00:44:01;100968.18;;;-1.39;84.16
57290;BME280;43523;53.022;-1.178;2023-04-25T00:45:05;100973.23;;;-1.97;85.95
57290;BME280;43523;53.022;-1.178;2023-04-25T00:46:08;100967.03;;;-1.33;83.98
57290;BME280;43523;53.022;-1.178;2023-04-25T00:47:11;100965.20;;;-1.39;82.81
57290;BME280;43523;53.022;-1.178;2023-04-25T00:48:14;100968.97;;;-1.79;85.17
57290;BME280;43523;53.022;-1.178;2023-04-25T00:49:17;100967.78;;;-2.63;89.66
57290;BME280;43523;53.022;-1.178;2023-04-25T00:50:20;100968.77;;;-2.33;88.84
57290;BME280;43523;53.022;-1.178;2023-04-25T00:51:23;100968.59;;;-2.53;87.50
57290;BME280;43523;53.022;-1.178;2023-04-25T00:52:26;100967.63;;;-2.03;87.66
57290;BME280;43523;53.022;-1.178;2023-04-25T00:53:29;100966.78;;;-2.36;90.62
57290;BME280;43523;53.022;-1.178;2023-04-25T00:54:31;100967.79;;;-2.94;91.56
57290;BME280;43523;53.022;-1.178;2023-04-25T00:55:35;100968.35;;;-3.21;92.77
57290;BME280;43523;53.022;-1.178;2023-04-25T00:56:38;100968.36;;;-2.34;90.22
57290;BME280;43523;53.022;-1.178;2023-04-25T00:57:40;100971.09;;;-1.94;88.64
57290;BME280;43523;53.022;-1.178;2023-04-25T00:58:43;100971.75;;;-2.36;89.90
57290;BME280;43523;53.022;-1.178;2023-04-25T00:59:46;100975.84;;;-1.84;88.39
57290;BME280;43523;53.022;-1.178;2023-04-25T01:00:50;100969.85;;;-1.48;85.90
57290;BME280;43523;53.022;-1.178;2023-04-25T01:01:53;100967.60;;;-1.56;84.77
57290;BME280;43523;53.022;-1.178;2023-04-25T01:02:55;100965.05;;;-1.36;82.78
57290;BME280;43523;53.022;-1.178;2023-04-25T01:03:59;100970.28;;;-1.27;82.37
57290;BME280;43523;53.022;-1.178;2023-04-25T01:05:00;100972.27;;;-1.39;83.20
57290;BME280;43523;53.022;-1.178;2023-04-25T01:06:04;100974.81;;;-1.27;83.46
57290;BME280;43523;53.022;-1.178;2023-04-25T01:07:06;100975.10;;;-1.03;83.34
57290;BME280;43523;53.022;-1.178;2023-04-25T01:08:09;100974.88;;;-1.40;84.33
57290;BME280;43523;53.022;-1.178;2023-04-25T01:09:12;100975.34;;;-1.24;83.84
57290;BME280;43523;53.022;-1.178;2023-04-25T01:10:15;100975.44;;;-1.69;83.90
57290;BME280;43523;53.022;-1.178;2023-04-25T01:11:17;100973.38;;;-1.40;84.74
57290;BME280;43523;53.022;-1.178;2023-04-25T01:12:20;100975.09;;;-1.45;83.49
57290;BME280;43523;53.022;-1.178;2023-04-25T01:13:22;100974.59;;;-1.81;85.30
57290;BME280;43523;53.022;-1.178;2023-04-25T01:14:25;100975.88;;;-1.46;85.64
57290;BME280;43523;53.022;-1.178;2023-04-25T01:15:28;100973.83;;;-1.44;85.16
57290;BME280;43523;53.022;-1.178;2023-04-25T01:16:31;100969.66;;;-1.62;85.12
57290;BME280;43523;53.022;-1.178;2023-04-25T01:17:35;100969.67;;;-1.04;83.65
57290;BME280;43523;53.022;-1.178;2023-04-25T01:18:39;100967.90;;;-0.78;81.81
57290;BME280;43523;53.022;-1.178;2023-04-25T01:19:42;100967.19;;;-1.17;81.06
57290;BME280;43523;53.022;-1.178;2023-04-25T01:20:46;100966.45;;;-1.24;81.42
57290;BME280;43523;53.022;-1.178;2023-04-25T01:21:48;100964.85;;;-1.03;81.85
57290;BME280;43523;53.022;-1.178;2023-04-25T01:22:51;100966.82;;;-1.05;82.96
57290;BME280;43523;53.022;-1.178;2023-04-25T01:23:54;100964.82;;;-0.93;83.01
57290;BME280;43523;53.022;-1.178;2023-04-25T01:24:57;100963.95;;;-1.04;83.58
57290;BME280;43523;53.022;-1.178;2023-04-25T01:26:00;100964.27;;;-1.11;82.99
57290;BME280;43523;53.022;-1.178;2023-04-25T01:27:03;100964.00;;;-1.31;82.78
57290;BME280;43523;53.022;-1.178;2023-04-25T01:28:06;100963.51;;;-0.73;82.22
57290;BME280;43523;53.022;-1.178;2023-04-25T01:29:08;100961.75;;;-0.88;81.57
57290;BME280;43523;53.022;-1.178;2023-04-25T01:30:12;100962.49;;;-0.88;81.37
57290;BME280;43523;53.022;-1.178;2023-04-25T01:31:15;100963.34;;;-0.93;79.91
57290;BME280;43523;53.022;-1.178;2023-04-25T01:32:19;100965.38;;;-1.03;79.13
57290;BME280;43523;53.022;-1.178;2023-04-25T01:33:22;100962.87;;;-0.97;78.86
57290;BME280;43523;53.022;-1.178;2023-04-25T01:34:25;100966.97;;;-0.70;80.27
57290;BME280;43523;53.022;-1.178;2023-04-25T01:35:27;100967.64;;;-1.05;82.29
57290;BME280;43523;53.022;-1.178;2023-04-25T01:36:30;100969.85;;;-0.96;81.61
57290;BME280;43523;53.022;-1.178;2023-04-25T01:37:32;100971.29;;;-0.45;80.63
57290;BME280;43523;53.022;-1.178;2023-04-25T01:38:36;100971.46;;;-0.89;79.97
57290;BME280;43523;53.022;-1.178;2023-04-25T01:39:38;100971.48;;;-0.77;81.95
57290;BME280;43523;53.022;-1.178;2023-04-25T01:40:41;100973.65;;;-0.98;81.96
57290;BME280;43523;53.022;-1.178;2023-04-25T01:41:45;100973.89;;;-0.80;85.09
57290;BME280;43523;53.022;-1.178;2023-04-25T01:42:48;100976.31;;;-0.28;83.56
57290;BME280;43523;53.022;-1.178;2023-04-25T01:43:50;100978.10;;;-0.76;82.66
57290;BME280;43523;53.022;-1.178;2023-04-25T01:44:53;100977.62;;;-0.78;84.56
57290;BME280;43523;53.022;-1.178;2023-04-25T01:45:56;100975.18;;;-0.70;83.53
57290;BME280;43523;53.022;-1.178;2023-04-25T01:46:59;100977.75;;;-0.55;81.45
57290;BME280;43523;53.022;-1.178;2023-04-25T01:48:01;100978.39;;;-0.56;79.85
57290;BME280;43523;53.022;-1.178;2023-04-25T01:49:04;100978.28;;;-0.55;79.27
57290;BME280;43523;53.022;-1.178;2023-04-25T01:50:09;100979.86;;;-0.69;78.82
57290;BME280;43523;53.022;-1.178;2023-04-25T01:51:12;100981.58;;;-1.07;79.29
57290;BME280;43523;53.022;-1.178;2023-04-25T01:52:14;100980.58;;;-0.96;79.54
57290;BME280;43523;53.022;-1.178;2023-04-25T01:53:17;100985.22;;;-1.46;80.16
57290;BME280;43523;53.022;-1.178;2023-04-25T01:54:19;100984.09;;;-0.69;80.43
57290;BME280;43523;53.022;-1.178;2023-04-25T01:55:22;100984.51;;;-1.05;80.37
57290;BME280;43523;53.022;-1.178;2023-04-25T01:56:24;100984.30;;;-0.79;79.17
57290;BME280;43523;53.022;-1.178;2023-04-25T01:57:27;100986.64;;;-0.78;79.44
57290;BME280;43523;53.022;-1.178;2023-04-25T01:58:29;100986.18;;;-0.81;79.23
57290;BME280;43523;53.022;-1.178;2023-04-25T01:59:32;100988.15;;;-0.70;79.04
57290;BME280;43523;53.022;-1.178;2023-04-25T02:00:36;100988.99;;;-0.92;79.31
57290;BME280;43523;53.022;-1.178;2023-04-25T02:01:39;100989.02;;;-0.78;78.67
57290;BME280;43523;53.022;-1.178;2023-04-25T02:02:41;100992.23;;;-0.71;77.67
57290;BME280;43523;53.022;-1.178;2023-04-25T02:03:44;100988.48;;;-0.94;78.54
57290;BME280;43523;53.022;-1.178;2023-04-25T02:04:46;100991.06;;;-1.12;78.59
57290;BME280;43523;53.022;-1.178;2023-04-25T02:05:49;100990.71;;;-1.17;78.41
57290;BME280;43523;53.022;-1.178;2023-04-25T02:06:51;100991.55;;;-2.19;83.83
57290;BME280;43523;53.022;-1.178;2023-04-25T02:07:54;100990.07;;;-1.57;81.26
57290;BME280;43523;53.022;-1.178;2023-04-25T02:08:56;100989.32;;;-1.07;80.90
57290;BME280;43523;53.022;-1.178;2023-04-25T02:09:59;100987.92;;;-1.08;80.31
57290;BME280;43523;53.022;-1.178;2023-04-25T02:11:02;100990.06;;;-2.30;84.04
57290;BME280;43523;53.022;-1.178;2023-04-25T02:12:05;100990.32;;;-1.79;82.34
57290;BME280;43523;53.022;-1.178;2023-04-25T02:13:07;100989.32;;;-1.10;80.84
57290;BME280;43523;53.022;-1.178;2023-04-25T02:14:09;100991.45;;;-1.65;82.52
57290;BME280;43523;53.022;-1.178;2023-04-25T02:15:12;100992.01;;;-1.46;82.28
57290;BME280;43523;53.022;-1.178;2023-04-25T02:16:14;100989.02;;;-1.37;82.39
57290;BME280;43523;53.022;-1.178;2023-04-25T02:17:17;100990.20;;;-1.59;82.56
57290;BME280;43523;53.022;-1.178;2023-04-25T02:18:19;100988.96;;;-1.49;83.14
57290;BME280;43523;53.022;-1.178;2023-04-25T02:19:22;100991.41;;;-1.74;83.67
57290;BME280;43523;53.022;-1.178;2023-04-25T02:20:25;100990.94;;;-1.58;84.39
57290;BME280;43523;53.022;-1.178;2023-04-25T02:21:28;100990.95;;;-1.65;84.29
57290;BME280;43523;53.022;-1.178;2023-04-25T02:22:30;100992.34;;;-2.17;84.44
57290;BME280;43523;53.022;-1.178;2023-04-25T02:23:32;100995.91;;;-1.91;83.87
57290;BME280;43523;53.022;-1.178;2023-04-25T02:24:36;100994.25;;;-1.86;83.53
57290;BME280;43523;53.022;-1.178;2023-04-25T02:25:38;100994.85;;;-1.74;83.39
57290;BME280;43523;53.022;-1.178;2023-04-25T02:26:41;100993.66;;;-1.68;83.23
57290;BME280;43523;53.022;-1.178;2023-04-25T02:27:44;100992.11;;;-1.61;82.75
57290;BME280;43523;53.022;-1.178;2023-04-25T02:28:46;100992.40;;;-1.45;82.51
57290;BME280;43523;53.022;-1.178;2023-04-25T02:29:48;100991.46;;;-1.02;84.96
57290;BME280;43523;53.022;-1.178;2023-04-25T02:30:50;100993.26;;;-0.68;83.58
57290;BME280;43523;53.022;-1.178;2023-04-25T02:31:53;100992.84;;;-1.42;85.82
57290;BME280;43523;53.022;-1.178;2023-04-25T02:32:55;100992.38;;;-1.67;87.91
57290;BME280;43523;53.022;-1.178;2023-04-25T02:33:58;100996.02;;;-1.36;85.80
57290;BME280;43523;53.022;-1.178;2023-04-25T02:35:01;100992.43;;;-1.42;89.40
57290;BME280;43523;53.022;-1.178;2023-04-25T02:36:04;100992.66;;;-1.18;87.40
57290;BME280;43523;53.022;-1.178;2023-04-25T02:37:06;100993.03;;;-1.14;89.36
57290;BME280;43523;53.022;-1.178;2023-04-25T02:38:08;100997.58;;;-1.59;87.44
57290;BME280;43523;53.022;-1.178;2023-04-25T02:39:11;100994.36;;;-1.51;87.41
57290;BME280;43523;53.022;-1.178;2023-04-25T02:40:14;100992.91;;;-1.26;87.87
57290;BME280;43523;53.022;-1.178;2023-04-25T02:41:16;100993.91;;;-1.77;86.58
57290;BME280;43523;53.022;-1.178;2023-04-25T02:42:19;100994.03;;;-1.08;88.47
57290;BME280;43523;53.022;-1.178;2023-04-25T02:43:21;100993.29;;;-1.17;86.07
57290;BME280;43523;53.022;-1.178;2023-04-25T02:44:24;100997.76;;;-1.35;85.11
57290;BME280;43523;53.022;-1.178;2023-04-25T02:45:27;100999.20;;;-1.34;85.59
57290;BME280;43523;53.022;-1.178;2023-04-25T02:46:29;101002.07;;;-1.38;84.99
57290;BME280;43523;53.022;-1.178;2023-04-25T02:47:32;101005.71;;;-1.68;83.65
57290;BME280;43523;53.022;-1.178;2023-04-25T02:48:36;101005.95;;;-1.56;86.31
57290;BME280;43523;53.022;-1.178;2023-04-25T02:49:38;101003.52;;;-1.80;88.03
57290;BME280;43523;53.022;-1.178;2023-04-25T02:50:40;101003.44;;;-2.55;90.21
57290;BME280;43523;53.022;-1.178;2023-04-25T02:51:44;101004.78;;;-2.18;89.43
57290;BME280;43523;53.022;-1.178;2023-04-25T02:52:46;100999.36;;;-2.38;89.85
57290;BME280;43523;53.022;-1.178;2023-04-25T02:53:49;100998.59;;;-2.38;91.45
57290;BME280;43523;53.022;-1.178;2023-04-25T02:54:51;100999.39;;;-2.02;90.83
57290;BME280;43523;53.022;-1.178;2023-04-25T02:55:54;100999.20;;;-1.92;89.92
57290;BME280;43523;53.022;-1.178;2023-04-25T02:56:57;101000.33;;;-2.82;92.09
57290;BME280;43523;53.022;-1.178;2023-04-25T02:57:59;101000.97;;;-2.50;91.92
57290;BME280;43523;53.022;-1.178;2023-04-25T02:59:02;100998.64;;;-2.49;91.56
57290;BME280;43523;53.022;-1.178;2023-04-25T03:00:06;100999.30;;;-2.83;91.98
57290;BME280;43523;53.022;-1.178;2023-04-25T03:01:08;101000.82;;;-3.05;93.56
57290;BME280;43523;53.022;-1.178;2023-04-25T03:02:11;101001.64;;;-2.75;93.98
57290;BME280;43523;53.022;-1.178;2023-04-25T03:03:14;101002.10;;;-2.74;93.20
57290;BME280;43523;53.022;-1.178;2023-04-25T03:04:16;101001.86;;;-2.43;93.25
57290;BME280;43523;53.022;-1.178;2023-04-25T03:05:19;101004.11;;;-1.97;91.45
57290;BME280;43523;53.022;-1.178;2023-04-25T03:06:21;101007.88;;;-3.13;92.63
57290;BME280;43523;53.022;-1.178;2023-04-25T03:07:23;101009.25;;;-2.98;93.57
57290;BME280;43523;53.022;-1.178;2023-04-25T03:08:26;101012.28;;;-3.91;97.55
57290;BME280;43523;53.022;-1.178;2023-04-25T03:09:29;101014.47;;;-3.56;98.84
57290;BME280;43523;53.022;-1.178;2023-04-25T03:10:31;101010.67;;;-3.16;98.18
57290;BME280;43523;53.022;-1.178;2023-04-25T03:11:34;101013.36;;;-2.92;95.82
57290;BME280;43523;53.022;-1.178;2023-04-25T03:12:37;101013.08;;;-2.92;95.19
57290;BME280;43523;53.022;-1.178;2023-04-25T03:13:39;101016.52;;;-3.87;99.04
57290;BME280;43523;53.022;-1.178;2023-04-25T03:14:41;101018.34;;;-3.93;100.00
57290;BME280;43523;53.022;-1.178;2023-04-25T03:15:44;101016.85;;;-3.81;100.00
57290;BME280;43523;53.022;-1.178;2023-04-25T03:16:47;101015.54;;;-3.77;100.00
57290;BME280;43523;53.022;-1.178;2023-04-25T03:17:50;101022.16;;;-4.62;100.00
57290;BME280;43523;53.022;-1.178;2023-04-25T03:18:52;101017.43;;;-4.30;100.00
57290;BME280;43523;53.022;-1.178;2023-04-25T03:19:55;101016.87;;;-4.23;100.00
57290;BME280;43523;53.022;-1.178;2023-04-25T03:20:58;101013.05;;;-3.39;100.00
57290;BME280;43523;53.022;-1.178;2023-04-25T03:22:00;101013.48;;;-3.28;100.00
57290;BME280;43523;53.022;-1.178;2023-04-25T03:23:03;101013.54;;;-4.13;100.00
57290;BME280;43523;53.022;-1.178;2023-04-25T03:24:05;101018.47;;;-4.44;100.00
57290;BME280;43523;53.022;-1.178;2023-04-25T03:25:08;101022.22;;;-3.86;100.00
57290;BME280;43523;53.022;-1.178;2023-04-25T03:26:10;101021.10;;;-3.83;100.00
57290;BME280;43523;53.022;-1.178;2023-04-25T03:27:12;101026.92;;;-4.02;100.00
57290;BME280;43523;53.022;-1.178;2023-04-25T03:28:15;101023.30;;;-3.23;100.00
57290;BME280;43523;53.022;-1.178;2023-04-25T03:29:17;101020.75;;;-3.50;100.00
57290;BME280;43523;53.022;-1.178;2023-04-25T03:30:20;101023.01;;;-3.65;100.00
57290;BME280;43523;53.022;-1.178;2023-04-25T03:31:22;101021.84;;;-2.71;100.00
57290;BME280;43523;53.022;-1.178;2023-04-25T03:32:25;101022.37;;;-2.60;100.00
57290;BME280;43523;53.022;-1.178;2023-04-25T03:33:28;101022.63;;;-2.10;100.00
57290;BME280;43523;53.022;-1.178;2023-04-25T03:34:30;101027.54;;;-2.22;100.00
57290;BME280;43523;53.022;-1.178;2023-04-25T03:35:33;101029.01;;;-1.98;100.00
57290;BME280;43523;53.022;-1.178;2023-04-25T03:36:36;101028.78;;;-1.87;98.22
57290;BME280;43523;53.022;-1.178;2023-04-25T03:37:38;101030.25;;;-1.57;97.45
57290;BME280;43523;53.022;-1.178;2023-04-25T03:38:40;101029.57;;;-1.67;96.45
57290;BME280;43523;53.022;-1.178;2023-04-25T03:39:44;101032.29;;;-1.95;97.14
57290;BME280;43523;53.022;-1.178;2023-04-25T03:40:46;101035.01;;;-1.76;100.00
57290;BME280;43523;53.022;-1.178;2023-04-25T03:41:49;101032.49;;;-1.62;100.00
57290;BME280;43523;53.022;-1.178;2023-04-25T03:42:51;101033.27;;;-1.85;98.01
57290;BME280;43523;53.022;-1.178;2023-04-25T03:43:54;101034.89;;;-2.27;95.65
57290;BME280;43523;53.022;-1.178;2023-04-25T03:44:56;101037.49;;;-2.16;96.09
57290;BME280;43523;53.022;-1.178;2023-04-25T03:45:58;101037.89;;;-2.77;95.30
57290;BME280;43523;53.022;-1.178;2023-04-25T03:47:01;101039.37;;;-2.92;97.21
57290;BME280;43523;53.022;-1.178;2023-04-25T03:48:04;101038.75;;;-2.30;97.96
57290;BME280;43523;53.022;-1.178;2023-04-25T03:49:06;101036.66;;;-1.98;97.14
57290;BME280;43523;53.022;-1.178;2023-04-25T03:50:09;101038.60;;;-2.21;96.44
57290;BME280;43523;53.022;-1.178;2023-04-25T03:51:11;101038.46;;;-2.80;96.09
57290;BME280;43523;53.022;-1.178;2023-04-25T03:52:14;101036.44;;;-3.07;97.24
57290;BME280;43523;53.022;-1.178;2023-04-25T03:53:16;101038.80;;;-3.33;99.66
57290;BME280;43523;53.022;-1.178;2023-04-25T03:54:19;101034.97;;;-2.41;98.66
57290;BME280;43523;53.022;-1.178;2023-04-25T03:55:23;101036.59;;;-3.39;99.40
57290;BME280;43523;53.022;-1.178;2023-04-25T03:56:26;101035.41;;;-3.13;100.00
57290;BME280;43523;53.022;-1.178;2023-04-25T03:57:29;101034.34;;;-3.35;100.00
57290;BME280;43523;53.022;-1.178;2023-04-25T03:58:31;101032.99;;;-3.66;100.00
57290;BME280;43523;53.022;-1.178;2023-04-25T03:59:35;101034.12;;;-3.53;100.00
57290;BME280;43523;53.022;-1.178;2023-04-25T04:00:37;101036.37;;;-3.58;100.00
57290;BME280;43523;53.022;-1.178;2023-04-25T04:01:40;101038.00;;;-3.72;100.00
57290;BME280;43523;53.022;-1.178;2023-04-25T04:02:43;101042.72;;;-3.55;100.00
57290;BME280;43523;53.022;-1.178;2023-04-25T04:03:46;101039.84;;;-2.73;100.00
57290;BME280;43523;53.022;-1.178;2023-04-25T04:04:48;101041.99;;;-3.27;100.00
57290;BME280;43523;53.022;-1.178;2023-04-25T04:05:51;101043.02;;;-2.69;99.49
57290;BME280;43523;53.022;-1.178;2023-04-25T04:06:53;101043.53;;;-2.48;98.15
57290;BME280;43523;53.022;-1.178;2023-04-25T04:07:56;101045.92;;;-2.44;97.82
57290;BME280;43523;53.022;-1.178;2023-04-25T04:08:59;101045.53;;;-2.68;96.70
57290;BME280;43523;53.022;-1.178;2023-04-25T04:10:01;101044.76;;;-2.14;93.95
57290;BME280;43523;53.022;-1.178;2023-04-25T04:11:04;101046.20;;;-2.02;94.66
57290;BME280;43523;53.022;-1.178;2023-04-25T04:12:06;101046.22;;;-1.81;94.53
57290;BME280;43523;53.022;-1.178;2023-04-25T04:13:09;101045.88;;;-1.69;91.35
57290;BME280;43523;53.022;-1.178;2023-04-25T04:14:12;101047.59;;;-1.60;90.12
57290;BME280;43523;53.022;-1.178;2023-04-25T04:15:14;101051.28;;;-1.69;88.86
57290;BME280;43523;53.022;-1.178;2023-04-25T04:16:17;101051.11;;;-1.65;89.36
57290;BME280;43523;53.022;-1.178;2023-04-25T04:17:19;101053.43;;;-1.60;89.42
57290;BME280;43523;53.022;-1.178;2023-04-25T04:18:22;101054.03;;;-1.25;88.49
57290;BME280;43523;53.022;-1.178;2023-04-25T04:19:25;101051.02;;;-1.61;87.00
57290;BME280;43523;53.022;-1.178;2023-04-25T04:20:27;101052.21;;;-1.13;87.01
57290;BME280;43523;53.022;-1.178;2023-04-25T04:21:30;101052.52;;;-1.30;85.93
57290;BME280;43523;53.022;-1.178;2023-04-25T04:22:32;101051.89;;;-1.55;86.10
57290;BME280;43523;53.022;-1.178;2023-04-25T04:23:35;101054.18;;;-1.40;86.40
57290;BME280;43523;53.022;-1.178;2023-04-25T04:24:37;101057.83;;;-1.85;89.53
57290;BME280;43523;53.022;-1.178;2023-04-25T04:25:40;101058.43;;;-1.85;90.81
57290;BME280;43523;53.022;-1.178;2023-04-25T04:26:44;101058.96;;;-1.65;95.85
57290;BME280;43523;53.022;-1.178;2023-04-25T04:27:46;101060.74;;;-1.81;93.70
57290;BME280;43523;53.022;-1.178;2023-04-25T04:28:49;101065.53;;;-1.76;91.58
57290;BME280;43523;53.022;-1.178;2023-04-25T04:29:51;101068.50;;;-1.76;92.85
57290;BME280;43523;53.022;-1.178;2023-04-25T04:30:54;101070.65;;;-1.49;93.32
57290;BME280;43523;53.022;-1.178;2023-04-25T04:32:01;101069.80;;;-1.26;90.20
57290;BME280;43523;53.022;-1.178;2023-04-25T04:33:04;101073.56;;;-2.11;88.29
57290;BME280;43523;53.022;-1.178;2023-04-25T04:34:07;101074.02;;;-1.76;89.81
57290;BME280;43523;53.022;-1.178;2023-04-25T04:35:09;101077.06;;;-1.64;88.86
57290;BME280;43523;53.022;-1.178;2023-04-25T04:36:11;101077.70;;;-1.43;87.48
57290;BME280;43523;53.022;-1.178;2023-04-25T04:37:15;101076.47;;;-1.16;87.43
57290;BME280;43523;53.022;-1.178;2023-04-25T04:38:17;101076.13;;;-1.23;85.66
57290;BME280;43523;53.022;-1.178;2023-04-25T04:39:20;101070.52;;;-1.24;84.20
57290;BME280;43523;53.022;-1.178;2023-04-25T04:40:22;101068.27;;;-1.49;89.81
57290;BME280;43523;53.022;-1.178;2023-04-25T04:41:25;101067.63;;;-1.61;91.85
57290;BME280;43523;53.022;-1.178;2023-04-25T04:42:28;101065.54;;;-1.60;90.48
57290;BME280;43523;53.022;-1.178;2023-04-25T04:43:31;101063.95;;;-1.37;91.70
57290;BME280;43523;53.022;-1.178;2023-04-25T04:44:34;101069.18;;;-1.58;94.85
57290;BME280;43523;53.022;-1.178;2023-04-25T04:45:37;101069.54;;;-1.80;90.80
57290;BME280;43523;53.022;-1.178;2023-04-25T04:46:39;101074.63;;;-1.89;91.46
57290;BME280;43523;53.022;-1.178;2023-04-25T04:47:41;101077.26;;;-2.05;91.38
57290;BME280;43523;53.022;-1.178;2023-04-25T04:48:44;101079.27;;;-1.71;92.96
57290;BME280;43523;53.022;-1.178;2023-04-25T04:49:46;101084.72;;;-1.50;93.40
57290;BME280;43523;53.022;-1.178;2023-04-25T04:50:49;101087.69;;;-1.48;91.82
57290;BME280;43523;53.022;-1.178;2023-04-25T04:51:52;101087.56;;;-1.75;89.78
57290;BME280;43523;53.022;-1.178;2023-04-25T04:52:54;101087.46;;;-1.46;91.33
57290;BME280;43523;53.022;-1.178;2023-04-25T04:53:57;101088.50;;;-1.34;90.20
57290;BME280;43523;53.022;-1.178;2023-04-25T04:54:59;101091.55;;;-1.56;88.69
57290;BME280;43523;53.022;-1.178;2023-04-25T04:56:02;101094.16;;;-2.18;89.27
57290;BME280;43523;53.022;-1.178;2023-04-25T04:57:04;101093.65;;;-1.68;89.88
57290;BME280;43523;53.022;-1.178;2023-04-25T04:58:07;101100.23;;;-2.35;90.69
57290;BME280;43523;53.022;-1.178;2023-04-25T04:59:09;101102.66;;;-1.94;93.55
57290;BME280;43523;53.022;-1.178;2023-04-25T05:00:14;101100.60;;;-1.98;91.97
57290;BME280;43523;53.022;-1.178;2023-04-25T05:01:16;101101.22;;;-1.89;93.89
57290;BME280;43523;53.022;-1.178;2023-04-25T05:02:19;101101.40;;;-1.78;90.09
57290;BME280;43523;53.022;-1.178;2023-04-25T05:03:21;101102.33;;;-1.72;89.23
57290;BME280;43523;53.022;-1.178;2023-04-25T05:04:24;101103.26;;;-1.81;89.08
57290;BME280;43523;53.022;-1.178;2023-04-25T05:05:27;101104.33;;;-2.04;88.79
57290;BME280;43523;53.022;-1.178;2023-04-25T05:06:35;101103.81;;;-2.06;89.18
57290;BME280;43523;53.022;-1.178;2023-04-25T05:07:37;101105.38;;;-2.47;90.57
57290;BME280;43523;53.022;-1.178;2023-04-25T05:08:40;101104.59;;;-2.96;92.53
57290;BME280;43523;53.022;-1.178;2023-04-25T05:09:43;101111.74;;;-3.67;96.48
57290;BME280;43523;53.022;-1.178;2023-04-25T05:10:46;101103.49;;;-3.18;96.01
57290;BME280;43523;53.022;-1.178;2023-04-25T05:11:48;101101.54;;;-3.00;95.92
57290;BME280;43523;53.022;-1.178;2023-04-25T05:12:51;101104.60;;;-3.33;98.98
57290;BME280;43523;53.022;-1.178;2023-04-25T05:13:54;101103.95;;;-3.85;100.00
57290;BME280;43523;53.022;-1.178;2023-04-25T05:14:56;101101.63;;;-4.05;100.00
57290;BME280;43523;53.022;-1.178;2023-04-25T05:16:01;101097.30;;;-2.95;99.43
57290;BME280;43523;53.022;-1.178;2023-04-25T05:17:03;101095.80;;;-2.88;100.00
57290;BME280;43523;53.022;-1.178;2023-04-25T05:18:06;101096.68;;;-2.56;98.15
57290;BME280;43523;53.022;-1.178;2023-04-25T05:19:08;101098.91;;;-2.27;96.49
57290;BME280;43523;53.022;-1.178;2023-04-25T05:20:11;101099.56;;;-2.56;95.70
57290;BME280;43523;53.022;-1.178;2023-04-25T05:21:14;101104.41;;;-2.85;99.08
57290;BME280;43523;53.022;-1.178;2023-04-25T05:22:16;101101.58;;;-2.13;100.00